sensor_id;sensor_type;location;lat;lon;timestamp;pressure;altitude;pressure_sealevel;temperature
38249;BMP280;24045;51.138;17.126;2023-08-07T00:05:17;98940.02;;;14.14
38249;BMP280;24045;51.138;17.126;2023-08-07T00:20:20;98942.86;;;14.13
38249;BMP280;24045;51.138;17.126;2023-08-07T00:35:23;98955.48;;;14.11
38249;BMP280;24045;51.138;17.126;2023-08-07T00:50:26;98967.45;;;14.08
38249;BMP280;24045;51.138;17.126;2023-08-07T01:05:46;98952.23;;;14.01
38249;BMP280;24045;51.138;17.126;2023-08-07T01:20:49;98943.36;;;13.96
38249;BMP280;24045;51.138;17.126;2023-08-07T01:35:53;98939.78;;;13.91
38249;BMP280;24045;51.138;17.126;2023-08-07T01:50:58;98925.20;;;13.80
38249;BMP280;24045;51.138;17.126;2023-08-07T02:06:01;98932.90;;;13.75
38249;BMP280;24045;51.138;17.126;2023-08-07T02:21:04;98934.97;;;13.68
38249;BMP280;24045;51.138;17.126;2023-08-07T02:36:07;98929.65;;;13.55
38249;BMP280;24045;51.138;17.126;2023-08-07T02:51:10;98937.71;;;13.46
38249;BMP280;24045;51.138;17.126;2023-08-07T03:06:13;98939.27;;;13.64
38249;BMP280;24045;51.138;17.126;2023-08-07T03:21:15;98938.86;;;13.89
38249;BMP280;24045;51.138;17.126;2023-08-07T03:36:18;98958.44;;;14.16
38249;BMP280;24045;51.138;17.126;2023-08-07T03:51:21;98969.61;;;14.33
38249;BMP280;24045;51.138;17.126;2023-08-07T04:06:24;98986.24;;;14.45
38249;BMP280;24045;51.138;17.126;2023-08-07T04:21:30;98999.35;;;14.54
38249;BMP280;24045;51.138;17.126;2023-08-07T04:36:33;99001.59;;;14.59
38249;BMP280;24045;51.138;17.126;2023-08-07T04:51:36;99016.00;;;14.76
38249;BMP280;24045;51.138;17.126;2023-08-07T05:06:38;99008.63;;;14.73
38249;BMP280;24045;51.138;17.126;2023-08-07T05:21:41;99023.11;;;14.65
38249;BMP280;24045;51.138;17.126;2023-08-07T05:36:44;99027.05;;;14.71
38249;BMP280;24045;51.138;17.126;2023-08-07T05:51:47;99035.17;;;14.94
38249;BMP280;24045;51.138;17.126;2023-08-07T06:06:49;99044.09;;;15.00
38249;BMP280;24045;51.138;17.126;2023-08-07T06:21:53;99058.67;;;15.14
38249;BMP280;24045;51.138;17.126;2023-08-07T06:36:57;99079.09;;;15.05
38249;BMP280;24045;51.138;17.126;2023-08-07T06:51:59;99102.42;;;14.96
38249;BMP280;24045;51.138;17.126;2023-08-07T07:07:02;99113.90;;;15.15
38249;BMP280;24045;51.138;17.126;2023-08-07T07:22:05;99124.42;;;15.33
38249;BMP280;24045;51.138;17.126;2023-08-07T07:37:08;99139.91;;;15.77
38249;BMP280;24045;51.138;17.126;2023-08-07T07:52:11;99138.79;;;16.54
38249;BMP280;24045;51.138;17.126;2023-08-07T08:07:13;99158.52;;;18.35
38249;BMP280;24045;51.138;17.126;2023-08-07T08:22:16;99157.30;;;20.20
38249;BMP280;24045;51.138;17.126;2023-08-07T08:37:19;99166.09;;;22.09
38249;BMP280;24045;51.138;17.126;2023-08-07T08:52:22;99169.45;;;22.59
38249;BMP280;24045;51.138;17.126;2023-08-07T09:07:26;99180.50;;;21.52
38249;BMP280;24045;51.138;17.126;2023-08-07T09:22:30;99193.20;;;22.49
38249;BMP280;24045;51.138;17.126;2023-08-07T09:37:32;99197.28;;;23.27
38249;BMP280;24045;51.138;17.126;2023-08-07T09:52:39;99211.94;;;24.17
38249;BMP280;24045;51.138;17.126;2023-08-07T10:07:42;99199.61;;;24.77
38249;BMP280;24045;51.138;17.126;2023-08-07T10:22:46;99214.55;;;23.72
38249;BMP280;24045;51.138;17.126;2023-08-07T10:37:50;99233.09;;;23.47
38249;BMP280;24045;51.138;17.126;2023-08-07T10:52:54;99230.92;;;23.40
38249;BMP280;24045;51.138;17.126;2023-08-07T11:07:56;99220.77;;;24.17
38249;BMP280;24045;51.138;17.126;2023-08-07T11:23:00;99207.63;;;24.23
38249;BMP280;24045;51.138;17.126;2023-08-07T11:38:03;99212.84;;;23.37
38249;BMP280;24045;51.138;17.126;2023-08-07T11:53:06;99228.81;;;22.09
38249;BMP280;24045;51.138;17.126;2023-08-07T12:08:09;99238.69;;;22.38
38249;BMP280;24045;51.138;17.126;2023-08-07T12:23:15;99248.78;;;22.37
38249;BMP280;24045;51.138;17.126;2023-08-07T12:38:21;99270.46;;;23.57
38249;BMP280;24045;51.138;17.126;2023-08-07T12:53:24;99300.90;;;22.51
38249;BMP280;24045;51.138;17.126;2023-08-07T13:08:27;99319.14;;;22.24
38249;BMP280;24045;51.138;17.126;2023-08-07T13:23:30;99329.79;;;21.91
38249;BMP280;24045;51.138;17.126;2023-08-07T13:38:32;99345.80;;;21.40
38249;BMP280;24045;51.138;17.126;2023-08-07T13:53:36;99349.95;;;20.75
38249;BMP280;24045;51.138;17.126;2023-08-07T14:08:39;99346.00;;;20.93
38249;BMP280;24045;51.138;17.126;2023-08-07T14:23:42;99344.27;;;21.43
38249;BMP280;24045;51.138;17.126;2023-08-07T14:38:47;99364.88;;;21.46
38249;BMP280;24045;51.138;17.126;2023-08-07T14:53:50;99384.84;;;18.85
38249;BMP280;24045;51.138;17.126;2023-08-07T15:08:53;99391.69;;;19.20
38249;BMP280;24045;51.138;17.126;2023-08-07T15:23:56;99376.63;;;19.62
38249;BMP280;24045;51.138;17.126;2023-08-07T15:38:59;99391.61;;;19.83
38249;BMP280;24045;51.138;17.126;2023-08-07T15:54:01;99387.20;;;19.64
38249;BMP280;24045;51.138;17.126;2023-08-07T16:09:04;99397.78;;;19.42
38249;BMP280;24045;51.138;17.126;2023-08-07T16:24:07;99419.70;;;19.59
38249;BMP280;24045;51.138;17.126;2023-08-07T16:39:10;99430.10;;;19.52
38249;BMP280;24045;51.138;17.126;2023-08-07T16:54:13;99438.59;;;19.45
38249;BMP280;24045;51.138;17.126;2023-08-07T17:09:16;99474.01;;;19.09
38249;BMP280;24045;51.138;17.126;2023-08-07T17:24:21;99481.30;;;18.41
38249;BMP280;24045;51.138;17.126;2023-08-07T17:39:24;99481.90;;;18.20
38249;BMP280;24045;51.138;17.126;2023-08-07T17:54:27;99496.89;;;18.12
38249;BMP280;24045;51.138;17.126;2023-08-07T18:09:29;99521.33;;;17.92
38249;BMP280;24045;51.138;17.126;2023-08-07T18:24:32;99518.64;;;17.69
38249;BMP280;24045;51.138;17.126;2023-08-07T18:39:35;99518.21;;;17.56
38249;BMP280;24045;51.138;17.126;2023-08-07T18:54:38;99548.50;;;17.39
38249;BMP280;24045;51.138;17.126;2023-08-07T19:09:42;99563.30;;;17.01
38249;BMP280;24045;51.138;17.126;2023-08-07T19:24:45;99583.21;;;16.76
38249;BMP280;24045;51.138;17.126;2023-08-07T19:39:48;99600.38;;;16.58
38249;BMP280;24045;51.138;17.126;2023-08-07T19:54:51;99632.73;;;16.65
38249;BMP280;24045;51.138;17.126;2023-08-07T20:09:54;99652.66;;;16.72
38249;BMP280;24045;51.138;17.126;2023-08-07T20:24:56;99666.65;;;16.65
38249;BMP280;24045;51.138;17.126;2023-08-07T20:39:59;99672.70;;;16.47
38249;BMP280;24045;51.138;17.126;2023-08-07T20:55:03;99699.04;;;16.13
38249;BMP280;24045;51.138;17.126;2023-08-07T21:10:07;99710.42;;;15.66
38249;BMP280;24045;51.138;17.126;2023-08-07T21:25:10;99719.88;;;15.35
38249;BMP280;24045;51.138;17.126;2023-08-07T21:40:13;99723.50;;;15.06
38249;BMP280;24045;51.138;17.126;2023-08-07T21:55:16;99743.14;;;14.84
38249;BMP280;24045;51.138;17.126;2023-08-07T22:10:21;99747.58;;;14.78
38249;BMP280;24045;51.138;17.126;2023-08-07T22:25:24;99753.93;;;14.63
38249;BMP280;24045;51.138;17.126;2023-08-07T22:40:27;99759.52;;;14.61
38249;BMP280;24045;51.138;17.126;2023-08-07T22:55:30;99771.48;;;14.49
38249;BMP280;24045;51.138;17.126;2023-08-07T23:10:33;99785.23;;;14.50
38249;BMP280;24045;51.138;17.126;2023-08-07T23:25:36;99806.84;;;14.46
38249;BMP280;24045;51.138;17.126;2023-08-07T23:40:38;99801.11;;;14.58
38249;BMP280;24045;51.138;17.126;2023-08-07T23:55:43;99811.22;;;14.57
